Time;durP1;ratioP1;P1;durP2;ratioP2;P2;SDS_P1;SDS_P2;PMS_P1;PMS_P2;Temp;Humidity;BMP_temperature;BMP_pressure;BME280_temperature;BME280_humidity;BME280_pressure;Samples;Min_cycle;Max_cycle;Signal;HPM_P1;HPM_P2
2021/07/09 00:02:09;;;;;;;;;4.00;4.00;;;;;21.14;48.07;101806.25;5079057;28;45362;-48
2021/07/09 00:04:35;;;;;;;;;4.25;4.25;;;;;21.12;48.39;101797.44;5096738;27;45300;-50
2021/07/09 00:07:00;;;;;;;;;3.00;2.50;;;;;21.13;48.24;101804.53;5100148;27;45960;-49
2021/07/09 00:09:27;;;;;;;;;2.75;2.75;;;;;21.13;48.39;101809.88;5100375;27;45346;-46
2021/07/09 00:11:54;;;;;;;;;4.00;3.00;;;;;21.11;47.93;101807.25;5100111;27;45393;-50
2021/07/09 00:14:26;;;;;;;;;3.25;3.25;;;;;21.11;47.87;101811.72;5088825;27;45423;-47
2021/07/09 00:16:53;;;;;;;;;5.00;5.00;;;;;21.10;48.17;101804.66;5100024;27;45413;-52
2021/07/09 00:19:19;;;;;;;;;5.00;3.75;;;;;21.11;48.07;101803.72;5064725;27;45355;-50
2021/07/09 00:21:44;;;;;;;;;3.75;3.75;;;;;21.09;48.28;101793.09;5103428;27;45412;-55
2021/07/09 00:24:10;;;;;;;;;5.00;4.50;;;;;21.13;48.39;101798.31;5103658;27;45244;-46
2021/07/09 00:26:36;;;;;;;;;4.00;4.00;;;;;21.14;47.97;101794.69;5103584;27;46060;-50
2021/07/09 00:29:03;;;;;;;;;6.75;6.00;;;;;21.15;47.97;101802.66;5103703;27;45343;-50
2021/07/09 00:31:29;;;;;;;;;7.00;6.00;;;;;21.17;48.11;101790.09;5103795;27;45239;-48
2021/07/09 00:33:56;;;;;;;;;6.75;6.25;;;;;21.17;47.89;101798.13;5103455;27;45461;-47
2021/07/09 00:36:21;;;;;;;;;4.00;4.00;;;;;21.18;48.29;101796.28;5103375;27;46254;-48
2021/07/09 00:38:46;;;;;;;;;5.00;4.00;;;;;21.20;48.19;101794.44;5103289;27;45345;-48
2021/07/09 00:41:12;;;;;;;;;4.25;4.25;;;;;21.20;48.47;101803.31;5103372;27;45441;-49
2021/07/09 00:43:38;;;;;;;;;3.00;3.00;;;;;21.22;48.57;101809.47;5103315;27;45350;-46
2021/07/09 00:46:03;;;;;;;;;5.00;5.00;;;;;21.23;47.99;101810.34;5103436;27;45264;-46
2021/07/09 00:48:29;;;;;;;;;3.75;3.75;;;;;21.24;48.36;101804.94;5103299;27;45437;-50
2021/07/09 00:50:59;;;;;;;;;4.50;4.50;;;;;21.25;47.94;101808.47;5103611;27;45697;-48
2021/07/09 00:53:25;;;;;;;;;4.50;4.50;;;;;21.25;48.09;101803.13;5084891;27;45772;-47
2021/07/09 00:55:51;;;;;;;;;4.50;4.50;;;;;21.23;47.95;101800.53;5102948;27;46348;-44
2021/07/09 00:58:17;;;;;;;;;4.00;3.00;;;;;21.26;48.17;101807.56;5103186;27;45348;-46
2021/07/09 01:00:43;;;;;;;;;7.75;5.25;;;;;21.26;48.44;101804.88;5103304;27;45299;-47
2021/07/09 01:03:09;;;;;;;;;5.00;5.00;;;;;21.26;48.39;101804.88;5103207;27;45302;-49
2021/07/09 01:05:35;;;;;;;;;7.00;5.00;;;;;21.24;48.18;101812.97;5103142;27;45282;-47
2021/07/09 01:08:03;;;;;;;;;7.25;6.00;;;;;21.24;48.32;101812.06;5103093;27;45303;-45
2021/07/09 01:10:28;;;;;;;;;5.25;5.25;;;;;21.26;48.29;101815.56;5102917;27;45227;-46
2021/07/09 01:12:54;;;;;;;;;6.75;5.75;;;;;21.23;48.57;101810.34;5102785;27;45215;-49
2021/07/09 01:15:20;;;;;;;;;4.75;4.00;;;;;21.22;48.59;101808.59;5102758;27;46280;-45
2021/07/09 01:17:46;;;;;;;;;7.00;5.75;;;;;21.20;48.46;101806.00;5102794;27;45330;-49
2021/07/09 01:20:14;;;;;;;;;6.25;6.25;;;;;21.20;48.42;101807.81;5102909;27;45303;-49
2021/07/09 01:22:42;;;;;;;;;6.00;6.00;;;;;21.20;48.76;101821.16;5102845;27;45272;-47
2021/07/09 01:25:15;;;;;;;;;5.50;5.50;;;;;21.18;48.59;101823.91;5102450;27;46346;-47
2021/07/09 01:27:43;;;;;;;;;3.25;3.25;;;;;21.17;48.86;101826.63;5102470;27;45177;-47
2021/07/09 01:30:13;;;;;;;;;4.75;4.75;;;;;21.16;48.98;101824.91;5102821;27;45253;-46
2021/07/09 01:32:38;;;;;;;;;5.00;5.00;;;;;21.15;48.46;101807.13;5101633;27;45480;-48
2021/07/09 01:35:05;;;;;;;;;6.25;6.25;;;;;21.15;48.76;101817.81;5102569;27;46314;-48
2021/07/09 01:37:30;;;;;;;;;6.50;6.50;;;;;21.14;48.49;101818.75;5084401;27;45283;-47
2021/07/09 01:39:55;;;;;;;;;6.00;5.25;;;;;21.11;48.65;101809.91;5102286;27;45235;-47
2021/07/09 01:42:21;;;;;;;;;6.50;6.50;;;;;21.12;48.88;101821.50;5102784;27;45548;-45
2021/07/09 01:44:46;;;;;;;;;7.25;5.25;;;;;21.11;48.81;101825.09;5102572;27;45283;-47
2021/07/09 01:47:12;;;;;;;;;6.75;4.25;;;;;21.10;49.26;101828.69;5102520;27;45255;-44
2021/07/09 01:49:53;;;;;;;;;5.00;5.00;;;;;21.09;49.15;101826.94;5102921;27;45374;-47
2021/07/09 01:52:18;;;;;;;;;7.00;7.00;;;;;21.09;48.80;101818.94;5102514;27;45311;-47
2021/07/09 01:54:44;;;;;;;;;8.50;7.00;;;;;21.07;49.37;101812.81;5101981;27;45438;-45
2021/07/09 01:57:10;;;;;;;;;7.75;7.25;;;;;21.07;49.38;101811.00;5102260;27;45339;-49
2021/07/09 01:59:37;;;;;;;;;7.75;6.00;;;;;21.05;49.09;101804.81;5102408;27;45235;-49
2021/07/09 02:02:02;;;;;;;;;7.25;5.50;;;;;21.04;48.91;101802.22;5102139;27;45394;-46
2021/07/09 02:04:28;;;;;;;;;8.75;8.25;;;;;21.02;49.32;101804.97;5102014;27;46217;-47
2021/07/09 02:06:53;;;;;;;;;5.25;5.25;;;;;21.05;49.33;101810.16;5102288;27;45258;-49
2021/07/09 02:09:18;;;;;;;;;8.00;8.00;;;;;21.04;49.03;101805.78;5102355;27;45182;-48
2021/07/09 02:11:44;;;;;;;;;6.75;5.00;;;;;21.04;49.39;101813.81;5101821;27;45464;-50
2021/07/09 02:14:09;;;;;;;;;6.50;6.50;;;;;21.04;49.64;101811.13;5101760;27;46060;-50
2021/07/09 02:16:34;;;;;;;;;6.50;5.50;;;;;21.06;48.96;101813.72;5102125;27;45267;-46
2021/07/09 02:19:00;;;;;;;;;9.00;7.00;;;;;21.05;49.15;101804.81;5101851;27;45268;-46
2021/07/09 02:21:25;;;;;;;;;7.50;6.75;;;;;21.05;49.13;101801.28;5083471;27;45594;-46
2021/07/09 02:23:50;;;;;;;;;9.00;6.25;;;;;21.06;49.74;101803.03;5101862;27;46280;-47
2021/07/09 02:26:16;;;;;;;;;8.00;8.00;;;;;21.03;49.16;101793.34;5101540;27;45332;-49
2021/07/09 02:28:41;;;;;;;;;7.75;7.75;;;;;21.03;49.49;101795.13;5101882;27;45244;-46
2021/07/09 02:31:06;;;;;;;;;6.75;5.75;;;;;21.05;49.41;101802.16;5101903;27;45310;-48
2021/07/09 02:33:32;;;;;;;;;6.50;6.50;;;;;21.05;49.81;101799.47;5101689;27;45517;-50
2021/07/09 02:35:57;;;;;;;;;7.00;7.00;;;;;21.05;49.24;101794.13;5101865;27;45355;-48
2021/07/09 02:38:22;;;;;;;;;5.75;5.75;;;;;21.04;49.42;101789.75;5101764;27;45272;-48
2021/07/09 02:40:48;;;;;;;;;8.00;7.75;;;;;21.06;49.30;101792.34;5083087;27;45356;-46
2021/07/09 02:43:14;;;;;;;;;8.50;7.25;;;;;21.04;49.57;101788.88;5101335;27;45330;-50
2021/07/09 02:45:39;;;;;;;;;8.00;8.00;;;;;21.06;49.50;101787.88;5101672;27;45432;-47
2021/07/09 02:48:05;;;;;;;;;8.25;6.75;;;;;21.07;49.94;101786.09;5101682;27;45445;-46
2021/07/09 02:50:30;;;;;;;;;7.50;7.50;;;;;21.05;49.57;101782.59;5101530;27;45179;-47
2021/07/09 02:52:55;;;;;;;;;8.75;7.50;;;;;21.05;49.45;101791.47;5082930;27;45343;-48
2021/07/09 02:55:22;;;;;;;;;8.00;6.25;;;;;21.06;49.71;101795.88;5101279;27;45301;-48
2021/07/09 02:57:47;;;;;;;;;9.00;7.75;;;;;21.06;49.51;101793.22;5101391;27;45297;-46
2021/07/09 03:00:16;;;;;;;;;8.75;8.25;;;;;21.07;49.46;101791.44;5101129;27;45256;-47
2021/07/09 03:02:42;;;;;;;;;7.00;7.00;;;;;21.07;49.86;101788.75;5101186;27;46116;-50
2021/07/09 03:05:08;;;;;;;;;10.00;8.25;;;;;21.04;49.93;101780.84;5101209;27;45396;-50
2021/07/09 03:07:34;;;;;;;;;9.25;7.50;;;;;21.05;49.53;101780.78;5080828;27;45556;-49
2021/07/09 03:10:00;;;;;;;;;7.75;7.75;;;;;21.04;49.47;101784.41;5100967;27;45251;-50
2021/07/09 03:12:26;;;;;;;;;10.25;8.25;;;;;21.04;50.15;101781.72;5080363;27;46224;-48
2021/07/09 03:14:51;;;;;;;;;9.00;8.25;;;;;21.02;49.94;101786.25;5100836;27;45245;-47
2021/07/09 03:17:17;;;;;;;;;8.50;7.50;;;;;21.02;49.60;101791.59;5101268;27;45330;-50
2021/07/09 03:19:43;;;;;;;;;7.50;5.75;;;;;21.01;50.21;101781.84;5099523;27;45259;-51
2021/07/09 03:22:09;;;;;;;;;10.25;8.00;;;;;21.01;49.74;101789.00;5100684;27;45418;-46
2021/07/09 03:24:34;;;;;;;;;7.00;7.00;;;;;20.99;49.65;101781.03;5101035;27;45212;-49
2021/07/09 03:26:59;;;;;;;;;11.00;9.50;;;;;20.95;49.76;101768.75;5100636;27;45376;-48
2021/07/09 03:29:25;;;;;;;;;6.75;6.75;;;;;20.97;49.68;101776.69;5101054;27;45357;-49
2021/07/09 03:31:50;;;;;;;;;9.75;9.75;;;;;20.95;49.75;101774.09;5100678;27;46320;-47
2021/07/09 03:34:16;;;;;;;;;9.25;8.00;;;;;20.93;49.89;101766.13;5100893;27;45280;-48
2021/07/09 03:36:44;;;;;;;;;9.50;7.00;;;;;20.93;49.67;101765.28;5101169;27;45316;-47
2021/07/09 03:39:11;;;;;;;;;10.75;9.50;;;;;20.89;49.97;101771.66;5100843;27;45416;-48
2021/07/09 03:41:37;;;;;;;;;10.50;8.00;;;;;20.88;49.86;101775.25;5100137;27;46427;-45
2021/07/09 03:44:03;;;;;;;;;9.25;9.00;;;;;20.85;50.01;101784.28;5082477;27;45278;-46
2021/07/09 03:46:29;;;;;;;;;8.00;7.75;;;;;20.86;50.36;101788.69;5100733;27;45237;-47
2021/07/09 03:48:54;;;;;;;;;7.75;7.75;;;;;20.83;50.33;101775.47;5079285;28;45722;-48
2021/07/09 03:51:19;;;;;;;;;10.00;8.50;;;;;20.82;49.94;101775.50;5094446;27;45645;-49
2021/07/09 03:53:44;;;;;;;;;9.50;6.00;;;;;20.80;50.23;101770.25;5100756;27;45330;-47
2021/07/09 03:56:10;;;;;;;;;7.25;6.25;;;;;20.78;50.59;101766.78;5102981;27;45252;-46
2021/07/09 03:58:35;;;;;;;;;8.50;7.50;;;;;20.73;50.23;101766.97;5104098;27;45326;-49
2021/07/09 04:01:01;;;;;;;;;8.50;8.50;;;;;20.74;50.70;101768.72;5082776;27;46104;-48
2021/07/09 04:03:26;;;;;;;;;6.50;5.75;;;;;20.72;50.67;101772.38;5104135;27;45398;-48
2021/07/09 04:05:52;;;;;;;;;9.50;8.50;;;;;20.70;50.42;101780.38;5082629;27;45470;-50
2021/07/09 04:08:17;;;;;;;;;11.50;9.00;;;;;20.69;50.86;101785.81;5104211;27;45447;-46
2021/07/09 04:10:42;;;;;;;;;10.25;9.00;;;;;20.67;50.99;101785.88;5103673;27;45362;-48
2021/07/09 04:13:07;;;;;;;;;8.00;8.00;;;;;20.66;50.47;101786.78;5103693;27;45405;-46
2021/07/09 04:15:33;;;;;;;;;9.00;9.00;;;;;20.64;50.81;101788.69;5104137;27;46083;-49
2021/07/09 04:17:58;;;;;;;;;7.75;7.75;;;;;20.63;50.71;101786.94;5103930;27;45568;-48
2021/07/09 04:20:24;;;;;;;;;8.50;8.00;;;;;20.61;50.92;101788.78;5103523;27;46073;-47
2021/07/09 04:22:49;;;;;;;;;9.50;9.00;;;;;20.58;50.53;101787.09;5103838;27;45319;-47
2021/07/09 04:25:15;;;;;;;;;8.50;7.00;;;;;20.57;51.19;101784.50;5103688;27;45158;-44
2021/07/09 04:27:41;;;;;;;;;12.00;7.75;;;;;20.55;50.94;101783.69;5103741;27;45552;-46
2021/07/09 04:30:09;;;;;;;;;6.50;6.50;;;;;20.53;50.59;101783.75;5103798;27;46585;-46
2021/07/09 04:32:34;;;;;;;;;8.75;8.75;;;;;20.50;51.07;101781.19;5103606;27;45239;-47
2021/07/09 04:35:00;;;;;;;;;10.25;10.00;;;;;20.50;51.21;101785.66;5103813;27;45317;-46
2021/07/09 04:37:25;;;;;;;;;10.00;8.50;;;;;20.49;50.84;101794.59;5103645;27;45254;-46
2021/07/09 04:39:50;;;;;;;;;8.00;8.00;;;;;20.46;50.92;101788.47;5103186;27;45294;-46
2021/07/09 04:42:16;;;;;;;;;10.00;10.00;;;;;20.42;51.36;101783.31;5103171;27;45305;-48
2021/07/09 04:44:41;;;;;;;;;10.00;9.00;;;;;20.44;51.43;101787.66;5081914;28;45302;-48
2021/07/09 04:47:07;;;;;;;;;10.00;9.00;;;;;20.44;51.52;101802.81;5102518;27;45477;-48
2021/07/09 04:49:32;;;;;;;;;9.00;8.00;;;;;20.36;51.45;101783.53;5103430;27;45971;-48
2021/07/09 04:51:58;;;;;;;;;8.25;8.25;;;;;20.43;51.51;101804.59;5081374;28;45356;-48
2021/07/09 04:54:23;;;;;;;;;8.50;8.25;;;;;20.43;51.68;101793.06;5095963;27;45799;-46
2021/07/09 04:56:49;;;;;;;;;11.50;10.00;;;;;20.41;51.30;101801.09;5102874;27;45289;-50
2021/07/09 04:59:14;;;;;;;;;8.75;8.75;;;;;20.42;51.59;101799.31;5103229;27;45976;-46
2021/07/09 05:01:40;;;;;;;;;8.25;7.00;;;;;20.42;51.12;101800.19;5084810;27;45336;-48
2021/07/09 05:04:07;;;;;;;;;7.50;7.50;;;;;20.42;51.82;101797.50;5103485;27;45209;-49
2021/07/09 05:06:33;;;;;;;;;7.75;6.75;;;;;20.44;51.80;101800.16;5101722;27;45228;-47
2021/07/09 05:08:58;;;;;;;;;10.00;9.00;;;;;20.43;51.57;101807.25;5103058;27;45343;-48
2021/07/09 05:11:24;;;;;;;;;10.25;10.00;;;;;20.43;51.54;101803.75;5102577;27;45146;-46
2021/07/09 05:13:49;;;;;;;;;12.50;11.00;;;;;20.46;51.35;101808.94;5103203;27;45263;-45
2021/07/09 05:16:14;;;;;;;;;10.00;10.00;;;;;20.45;51.40;101810.75;5102738;27;45504;-49
2021/07/09 05:18:39;;;;;;;;;16.75;13.50;;;;;20.46;51.85;101804.50;5102719;27;45457;-44
2021/07/09 05:21:05;;;;;;;;;12.00;8.75;;;;;20.48;51.34;101806.22;5102782;27;45374;-49
2021/07/09 05:23:30;;;;;;;;;13.00;11.75;;;;;20.47;51.51;101805.34;5103112;27;45295;-44
2021/07/09 05:25:56;;;;;;;;;14.25;11.25;;;;;20.46;51.98;101809.84;5102454;27;45404;-47
2021/07/09 05:28:21;;;;;;;;;10.25;9.00;;;;;20.50;51.46;101809.69;5084350;27;48556;-46
2021/07/09 05:30:46;;;;;;;;;12.50;11.50;;;;;20.52;51.60;101805.19;5102673;27;45393;-45
2021/07/09 05:33:15;;;;;;;;;12.25;10.00;;;;;20.53;52.14;101809.59;5102940;27;45428;-48
2021/07/09 05:35:42;;;;;;;;;11.50;10.50;;;;;20.55;51.57;101810.38;5102556;27;45228;-47
2021/07/09 05:38:08;;;;;;;;;13.75;11.00;;;;;20.57;51.99;101819.22;5102586;27;45282;-46
2021/07/09 05:40:33;;;;;;;;;13.00;8.75;;;;;20.58;51.82;101819.16;5102325;27;45271;-49
2021/07/09 05:43:00;;;;;;;;;14.75;10.50;;;;;20.59;51.92;101820.00;5102666;27;45244;-46
2021/07/09 05:45:26;;;;;;;;;11.00;10.00;;;;;20.62;51.78;101818.09;5083983;27;45474;-48
2021/07/09 05:47:51;;;;;;;;;13.50;10.00;;;;;20.66;52.20;101820.66;5102444;27;45324;-50
2021/07/09 05:50:17;;;;;;;;;14.00;11.00;;;;;20.69;51.83;101826.75;5102317;27;45441;-48
2021/07/09 05:52:42;;;;;;;;;11.00;9.25;;;;;20.70;51.84;101828.47;5102631;27;45323;-49
2021/07/09 05:55:08;;;;;;;;;11.50;11.50;;;;;20.74;51.89;101829.25;5102090;27;45392;-49
2021/07/09 05:57:33;;;;;;;;;11.50;10.00;;;;;20.76;51.91;101824.72;5083843;27;46825;-47
2021/07/09 05:59:59;;;;;;;;;14.50;11.75;;;;;20.77;51.96;101819.31;5102026;27;45331;-50
2021/07/09 06:02:24;;;;;;;;;10.50;10.00;;;;;20.82;51.97;101827.16;5102633;27;45285;-48
2021/07/09 06:04:49;;;;;;;;;13.50;11.75;;;;;20.85;52.23;101826.16;5102233;27;45660;-49
2021/07/09 06:07:15;;;;;;;;;12.25;10.25;;;;;20.87;51.73;101822.50;5102170;27;46099;-49
2021/07/09 06:09:40;;;;;;;;;18.00;12.50;;;;;20.90;52.18;101826.84;5101817;27;45203;-50
2021/07/09 06:12:06;;;;;;;;;12.50;12.00;;;;;20.93;51.83;101829.41;5102213;27;45331;-51
2021/07/09 06:14:31;;;;;;;;;13.75;10.75;;;;;20.94;52.62;101828.44;5101918;27;45239;-49
2021/07/09 06:16:56;;;;;;;;;13.00;13.00;;;;;20.99;52.52;101833.59;5101908;27;45247;-48
2021/07/09 06:19:22;;;;;;;;;15.50;14.00;;;;;20.99;52.27;101821.09;5101135;27;45630;-52
2021/07/09 06:21:47;;;;;;;;;13.75;12.75;;;;;21.05;52.35;101834.22;5102010;27;45485;-52
2021/07/09 06:24:13;;;;;;;;;11.00;10.25;;;;;21.05;52.51;101817.31;5083179;27;45497;-49
2021/07/09 06:26:40;;;;;;;;;12.50;10.75;;;;;21.09;52.01;101824.28;5101527;27;45245;-50
2021/07/09 06:29:06;;;;;;;;;15.75;13.25;;;;;21.14;52.00;101821.41;5101691;27;45466;-47
2021/07/09 06:31:31;;;;;;;;;16.00;12.75;;;;;21.17;51.89;101830.19;5101955;27;45477;-50
2021/07/09 06:33:57;;;;;;;;;13.25;11.25;;;;;21.21;52.13;101828.25;5083320;27;45364;-48
2021/07/09 06:36:22;;;;;;;;;13.50;12.50;;;;;21.23;52.12;101827.25;5101692;27;46192;-49
2021/07/09 06:38:47;;;;;;;;;9.75;9.75;;;;;21.25;52.04;101827.19;5101456;27;45306;-47
2021/07/09 06:41:13;;;;;;;;;13.50;11.75;;;;;21.30;52.32;101835.03;5101566;27;45383;-50
2021/07/09 06:43:38;;;;;;;;;15.75;13.25;;;;;21.35;51.97;101839.22;5101297;27;45597;-49
2021/07/09 06:46:04;;;;;;;;;12.75;12.75;;;;;21.36;51.99;101826.75;5101468;27;46287;-46
2021/07/09 06:48:29;;;;;;;;;15.50;12.50;;;;;21.34;52.29;101828.59;5101542;27;45281;-48
2021/07/09 06:50:54;;;;;;;;;13.50;12.25;;;;;21.45;52.06;101833.50;5079962;28;45442;-51
2021/07/09 06:53:20;;;;;;;;;15.25;12.25;;;;;21.49;52.03;101843.13;5059587;28;45462;-47
2021/07/09 06:55:45;;;;;;;;;12.25;12.25;;;;;21.53;52.22;101844.72;5069415;28;46041;-49
2021/07/09 06:58:10;;;;;;;;;7.25;7.25;;;;;21.57;51.80;101843.69;5097815;27;45208;-50
2021/07/09 07:00:37;;;;;;;;;14.00;10.25;;;;;21.58;51.95;101845.44;5101479;27;45207;-52
2021/07/09 07:03:03;;;;;;;;;13.75;10.00;;;;;21.59;52.11;101847.16;5101412;27;45220;-50
2021/07/09 07:05:28;;;;;;;;;14.00;10.25;;;;;21.63;52.21;101854.13;5079435;28;47011;-51
2021/07/09 07:07:54;;;;;;;;;13.25;12.00;;;;;21.66;52.06;101845.97;5097942;27;45213;-52
2021/07/09 07:10:19;;;;;;;;;15.50;11.75;;;;;21.69;52.17;101853.00;5101198;27;45559;-50
2021/07/09 07:12:46;;;;;;;;;12.75;12.50;;;;;21.69;52.26;101850.31;5101131;27;45372;-52
2021/07/09 07:15:12;;;;;;;;;11.00;10.25;;;;;21.74;51.91;101842.97;5100883;27;46229;-53
2021/07/09 07:17:37;;;;;;;;;16.75;15.75;;;;;21.76;51.57;101843.78;5101084;27;45342;-51
2021/07/09 07:20:04;;;;;;;;;12.25;11.00;;;;;21.79;51.67;101856.16;5100692;27;45305;-51
2021/07/09 07:22:29;;;;;;;;;15.00;12.00;;;;;21.82;51.88;101850.66;5101028;27;45310;-49
2021/07/09 07:24:54;;;;;;;;;13.00;12.75;;;;;21.85;51.95;101853.19;5100388;27;46698;-52
2021/07/09 07:27:21;;;;;;;;;16.75;16.25;;;;;21.86;52.14;101853.13;5100603;27;45178;-52
2021/07/09 07:29:47;;;;;;;;;15.50;12.50;;;;;21.89;52.21;101849.44;5100082;27;45161;-53
2021/07/09 07:32:13;;;;;;;;;12.75;11.25;;;;;21.89;52.23;101852.97;5100673;27;45264;-52
2021/07/09 07:34:39;;;;;;;;;17.00;15.00;;;;;21.92;51.98;101857.31;5100752;27;46326;-48
2021/07/09 07:37:04;;;;;;;;;13.25;12.25;;;;;21.96;51.56;101861.63;5100584;27;45316;-52
2021/07/09 07:39:30;;;;;;;;;13.50;12.25;;;;;21.98;52.34;101853.50;5100695;27;45305;-52
2021/07/09 07:41:55;;;;;;;;;19.50;16.25;;;;;21.95;51.74;101846.50;5100494;27;45231;-52
2021/07/09 07:44:21;;;;;;;;;15.50;14.50;;;;;22.01;51.56;101853.38;5100694;27;45421;-53
2021/07/09 07:46:49;;;;;;;;;18.00;14.25;;;;;22.03;51.70;101852.34;5100458;27;45354;-51
2021/07/09 07:49:15;;;;;;;;;14.75;13.25;;;;;22.05;52.17;101853.16;5078906;28;45308;-51
2021/07/09 07:51:40;;;;;;;;;21.25;17.00;;;;;22.07;51.96;101856.66;5096555;27;45577;-53
2021/07/09 07:54:05;;;;;;;;;17.00;12.00;;;;;22.08;51.73;101853.00;5100462;27;46194;-51
2021/07/09 07:56:31;;;;;;;;;14.25;12.75;;;;;22.12;51.46;101852.88;5100307;27;45251;-51
2021/07/09 07:58:56;;;;;;;;;11.00;11.00;;;;;22.11;51.68;101849.31;5100435;27;45411;-49
2021/07/09 08:01:22;;;;;;;;;13.50;13.00;;;;;22.14;51.80;101853.66;5100370;27;45218;-51
2021/07/09 08:03:48;;;;;;;;;15.75;12.50;;;;;22.15;51.51;101853.63;5100403;27;46166;-51
2021/07/09 08:06:13;;;;;;;;;11.75;11.75;;;;;22.20;51.49;101851.59;5081753;27;45195;-51
2021/07/09 08:08:39;;;;;;;;;11.75;11.75;;;;;22.21;52.08;101852.47;5100489;27;45308;-53
2021/07/09 08:11:05;;;;;;;;;13.00;10.75;;;;;22.23;51.39;101855.94;5099983;27;45316;-50
2021/07/09 08:13:30;;;;;;;;;12.00;12.00;;;;;22.24;51.27;101852.34;5100024;27;45372;-52
2021/07/09 08:15:56;;;;;;;;;12.75;11.25;;;;;22.23;51.45;101846.09;5100065;27;45317;-52
2021/07/09 08:18:21;;;;;;;;;11.25;11.00;;;;;22.24;51.28;101844.31;5100164;27;45317;-50
2021/07/09 08:20:48;;;;;;;;;13.25;12.25;;;;;;;;5081565;27;45480;-50
2021/07/09 08:23:13;;;;;;;;;13.75;10.75;;;;;22.28;51.59;101847.72;5100089;27;45433;-49
2021/07/09 08:25:38;;;;;;;;;12.25;10.25;;;;;22.26;51.36;101845.09;5081361;27;45318;-50
2021/07/09 08:28:04;;;;;;;;;12.50;11.50;;;;;22.25;51.74;101840.69;5100142;27;45318;-52
2021/07/09 08:30:29;;;;;;;;;14.25;11.00;;;;;22.32;51.54;101846.63;5100056;27;45316;-51
2021/07/09 08:32:55;;;;;;;;;11.75;11.50;;;;;22.31;51.38;101837.69;5100042;27;46010;-52
2021/07/09 08:35:20;;;;;;;;;12.50;12.50;;;;;22.32;51.27;101839.44;5100044;27;45237;-53
2021/07/09 08:37:46;;;;;;;;;13.75;13.25;;;;;22.35;51.73;101838.44;5100319;27;45434;-52
2021/07/09 08:40:12;;;;;;;;;15.00;14.00;;;;;22.27;51.11;101816.53;5099531;27;45359;-55
2021/07/09 08:42:38;;;;;;;;;15.75;13.50;;;;;22.38;51.39;101831.16;5084400;27;48253;-52
2021/07/09 08:45:06;;;;;;;;;13.50;13.00;;;;;22.42;51.47;101825.69;5103431;27;45466;-52
2021/07/09 08:47:33;;;;;;;;;14.50;13.75;;;;;22.46;51.24;101833.47;5103488;27;45236;-50
2021/07/09 08:50:01;;;;;;;;;13.75;12.25;;;;;22.50;51.50;101823.50;5103118;27;45225;-52
2021/07/09 08:52:26;;;;;;;;;16.25;15.00;;;;;22.47;51.47;101818.28;5103059;27;45291;-51
2021/07/09 08:54:52;;;;;;;;;14.75;12.75;;;;;22.50;51.22;101826.16;5102959;27;45311;-51
2021/07/09 08:57:17;;;;;;;;;17.00;15.50;;;;;22.50;51.17;101827.06;5103307;27;45307;-52
2021/07/09 08:59:42;;;;;;;;;18.00;15.50;;;;;22.52;51.36;101835.00;5102998;27;45154;-49
2021/07/09 09:02:08;;;;;;;;;15.75;15.00;;;;;22.50;51.28;101824.38;5103203;27;46215;-53
2021/07/09 09:04:36;;;;;;;;;16.00;15.50;;;;;22.50;51.33;101820.81;5083193;27;45658;-51
2021/07/09 09:07:08;;;;;;;;;14.75;13.00;;;;;22.51;51.53;101822.56;5103243;27;45288;-52
2021/07/09 09:09:36;;;;;;;;;18.50;16.25;;;;;22.51;51.22;101819.88;5083698;27;45552;-51
2021/07/09 09:12:09;;;;;;;;;15.25;13.25;;;;;22.55;50.95;101830.38;5084251;27;47187;-53
2021/07/09 09:14:37;;;;;;;;;14.00;14.00;;;;;22.59;51.26;101823.06;5080784;28;45442;-53
2021/07/09 09:17:25;;;;;;;;;10.50;8.75;;;;;22.62;51.00;101824.72;5094744;27;45288;-52
2021/07/09 09:20:16;;;;;;;;;11.00;11.00;;;;;22.62;51.25;101820.22;5102395;27;45473;-53
2021/07/09 09:22:48;;;;;;;;;12.50;11.00;;;;;22.67;50.72;101823.56;5065415;28;46269;-49
2021/07/09 09:25:13;;;;;;;;;7.50;7.50;;;;;22.71;50.90;101830.50;5094766;27;45248;-51
2021/07/09 09:27:39;;;;;;;;;9.00;9.00;;;;;22.71;50.75;101827.81;5102602;27;45478;-52
2021/07/09 09:30:11;;;;;;;;;9.50;9.50;;;;;22.71;50.86;101827.81;5102717;27;45238;-53
2021/07/09 09:32:50;;;;;;;;;11.00;9.50;;;;;22.74;50.34;101826.78;5080850;28;46347;-50
2021/07/09 09:35:30;;;;;;;;;13.00;11.00;;;;;22.79;50.62;101826.59;5097669;27;45446;-51
2021/07/09 09:38:02;;;;;;;;;11.75;8.25;;;;;22.83;50.68;101828.16;5102943;27;45341;-51
2021/07/09 09:40:29;;;;;;;;;8.25;8.25;;;;;22.84;50.56;101825.44;5101956;27;45504;-52
2021/07/09 09:42:55;;;;;;;;;8.50;7.25;;;;;22.90;50.75;101824.25;5102383;27;45302;-51
2021/07/09 09:45:25;;;;;;;;;9.75;7.75;;;;;22.92;50.66;101818.81;5102247;27;45227;-52
2021/07/09 09:47:52;;;;;;;;;10.75;9.00;;;;;22.97;50.20;101823.00;5080689;28;45331;-50
2021/07/09 09:50:20;;;;;;;;;12.50;10.50;;;;;23.01;50.54;101823.72;5100906;27;45469;-52
2021/07/09 09:52:51;;;;;;;;;9.50;8.00;;;;;23.03;50.43;101813.78;5101435;27;46928;-48
2021/07/09 09:55:30;;;;;;;;;10.25;8.00;;;;;23.08;50.41;101822.47;5102017;27;45275;-49
2021/07/09 09:58:15;;;;;;;;;9.00;9.00;;;;;23.10;50.10;101823.25;5102344;27;45339;-48
2021/07/09 10:00:45;;;;;;;;;9.50;8.50;;;;;23.10;49.95;101804.50;5102166;27;45429;-51
2021/07/09 10:03:11;;;;;;;;;9.75;7.25;;;;;23.14;50.22;101813.25;5102043;27;46197;-50
2021/07/09 10:05:41;;;;;;;;;11.75;8.75;;;;;23.18;50.09;101814.84;5102153;27;45418;-51
2021/07/09 10:08:11;;;;;;;;;8.75;8.25;;;;;23.20;50.00;101811.16;5102257;27;45223;-52
2021/07/09 10:10:38;;;;;;;;;11.50;9.00;;;;;23.22;50.13;101811.09;5101708;27;45394;-52
2021/07/09 10:13:03;;;;;;;;;11.50;10.25;;;;;23.21;49.98;101812.88;5101607;27;46024;-51
2021/07/09 10:15:30;;;;;;;;;7.75;7.75;;;;;23.27;49.65;101801.00;5101753;27;45525;-51
2021/07/09 10:17:57;;;;;;;;;9.50;8.00;;;;;23.29;49.82;101808.97;5102004;27;45301;-50
2021/07/09 10:20:24;;;;;;;;;11.50;8.25;;;;;23.28;49.63;101816.16;5101659;27;45227;-50
2021/07/09 10:22:50;;;;;;;;;14.50;13.00;;;;;23.30;49.69;101818.75;5101504;27;45275;-52
2021/07/09 10:25:19;;;;;;;;;6.50;6.50;;;;;23.31;49.76;101809.75;5101481;27;45343;-52
2021/07/09 10:27:46;;;;;;;;;10.00;8.00;;;;;23.33;49.64;101805.16;5101788;27;45284;-51
2021/07/09 10:30:12;;;;;;;;;9.50;7.50;;;;;23.33;49.60;101808.72;5101737;27;45491;-51
2021/07/09 10:32:43;;;;;;;;;8.50;7.75;;;;;23.32;49.75;101804.31;5101750;27;45324;-52
2021/07/09 10:35:33;;;;;;;;;9.75;9.00;;;;;23.34;49.67;101810.44;5101597;27;45334;-53
2021/07/09 10:38:19;;;;;;;;;7.50;7.50;;;;;23.33;49.69;101808.72;5092717;27;45278;-52
2021/07/09 10:40:46;;;;;;;;;9.50;9.00;;;;;23.36;49.73;101810.38;5083037;27;45517;-48
2021/07/09 10:43:13;;;;;;;;;7.75;7.75;;;;;23.35;49.73;101809.50;5101413;27;45418;-49
2021/07/09 10:45:40;;;;;;;;;11.25;9.00;;;;;23.40;49.68;101805.75;5101604;27;45442;-48
2021/07/09 10:48:17;;;;;;;;;11.75;9.00;;;;;23.44;49.56;101799.25;5101464;27;45177;-52
2021/07/09 10:50:46;;;;;;;;;12.00;9.25;;;;;23.45;49.56;101803.69;5101305;27;45477;-49
2021/07/09 10:53:13;;;;;;;;;12.00;12.00;;;;;23.51;49.47;101798.00;5101200;27;45388;-49
2021/07/09 10:55:46;;;;;;;;;6.00;5.50;;;;;23.54;49.27;101797.81;5082773;27;45327;-50
2021/07/09 10:58:17;;;;;;;;;11.00;8.75;;;;;23.57;49.54;101797.69;5101287;27;45319;-52
2021/07/09 11:00:49;;;;;;;;;15.00;13.50;;;;;23.59;49.08;101789.56;5082945;27;45205;-52
2021/07/09 11:03:38;;;;;;;;;8.75;8.00;;;;;23.63;49.32;101794.66;5101074;27;47149;-52
2021/07/09 11:06:20;;;;;;;;;13.75;10.25;;;;;23.65;49.34;101792.75;5101119;27;45295;-52
2021/07/09 11:09:06;;;;;;;;;10.00;7.75;;;;;23.69;49.27;101780.91;5101331;27;45434;-52
2021/07/09 11:11:36;;;;;;;;;11.50;9.25;;;;;23.72;49.95;101785.25;5100695;27;45546;-52
2021/07/09 11:14:16;;;;;;;;;10.75;9.50;;;;;23.76;48.91;101780.59;5100682;27;45931;-51
2021/07/09 11:16:45;;;;;;;;;9.00;9.00;;;;;23.76;48.94;101773.41;5101013;27;45312;-51
2021/07/09 11:19:19;;;;;;;;;8.75;8.75;;;;;23.83;49.13;101772.13;5100825;27;45351;-51